createdAt,value
2017-10-01T00:00:20.627Z,15
2017-10-01T00:01:20.068Z,15.1
2017-10-01T00:02:19.539Z,15.1
2017-10-01T00:03:18.839Z,15.1
2017-10-01T00:04:17.888Z,15.1
2017-10-01T00:05:17.324Z,15.2
2017-10-01T00:06:16.125Z,15.2
2017-10-01T00:07:15.307Z,15.3
2017-10-01T00:08:14.615Z,15.3
2017-10-01T00:09:13.921Z,15.3
2017-10-01T00:10:13.222Z,15.4
2017-10-01T00:11:12.533Z,15.4
2017-10-01T00:12:11.592Z,15.4
2017-10-01T00:13:10.653Z,15.4
2017-10-01T00:14:10.456Z,15.4
2017-10-01T00:15:09.387Z,15.4
2017-10-01T00:16:08.825Z,15.4
2017-10-01T00:17:07.633Z,15.4
2017-10-01T00:18:07.435Z,15.5
2017-10-01T00:19:06.110Z,15.5
2017-10-01T00:20:06.057Z,15.4
2017-10-01T00:20:36.158Z,15.4
2017-10-01T00:21:06.653Z,15.4
2017-10-01T00:21:36.766Z,15.4
2017-10-01T00:23:03.374Z,15.3
2017-10-01T00:23:33.864Z,15.3
2017-10-01T00:25:01.730Z,15.2
2017-10-01T00:26:01.038Z,15.2
2017-10-01T00:27:00.474Z,15.1
2017-10-01T00:27:59.915Z,15
2017-10-01T00:28:59.090Z,14.9
2017-10-01T00:29:58.278Z,14.9
2017-10-01T00:30:57.462Z,14.9
2017-10-01T00:31:56.764Z,14.8
2017-10-01T00:32:55.823Z,14.8
2017-10-01T00:33:55.132Z,14.7
2017-10-01T00:34:54.436Z,14.7
2017-10-01T00:36:52.887Z,14.6
2017-10-01T00:37:52.195Z,14.6
2017-10-01T00:38:51.378Z,14.6
2017-10-01T00:39:50.437Z,14.6
2017-10-01T00:40:50.004Z,14.5
2017-10-01T00:41:49.173Z,14.5
2017-10-01T00:42:48.478Z,14.5
2017-10-01T00:43:47.655Z,14.5
2017-10-01T00:44:46.835Z,14.5
2017-10-01T00:45:46.146Z,14.4
2017-10-01T00:46:45.326Z,14.4
2017-10-01T00:47:44.628Z,14.4
2017-10-01T00:48:43.678Z,14.4
2017-10-01T00:49:43.244Z,14.4
2017-10-01T00:50:42.434Z,14.4
2017-10-01T00:51:41.742Z,14.4
2017-10-01T00:52:41.179Z,14.4
2017-10-01T00:53:11.171Z,14.4
2017-10-01T00:53:41.547Z,14.4
2017-10-01T00:54:11.793Z,14.4
2017-10-01T00:55:38.653Z,14.3
2017-10-01T00:56:37.838Z,14.3
2017-10-01T00:57:37.141Z,14.2
2017-10-01T00:58:36.324Z,14.1
2017-10-01T00:59:35.624Z,14.1
2017-10-01T01:00:34.687Z,14.1
2017-10-01T01:01:34.123Z,14
2017-10-01T01:02:04.870Z,14
2017-10-01T01:02:35.517Z,14
2017-10-01T01:03:32.302Z,14
2017-10-01T01:04:31.740Z,14
2017-10-01T01:05:30.794Z,14
2017-10-01T01:06:30.483Z,13.9
2017-10-01T01:07:29.287Z,13.9
2017-10-01T01:08:28.720Z,13.9
2017-10-01T01:09:28.032Z,13.9
2017-10-01T01:10:27.209Z,13.8
2017-10-01T01:11:26.642Z,13.8
2017-10-01T01:12:25.949Z,13.8
2017-10-01T01:13:25.004Z,13.8
2017-10-01T01:15:23.321Z,13.8
2017-10-01T01:16:22.633Z,13.7
2017-10-01T01:17:21.944Z,13.7
2017-10-01T01:18:21.127Z,13.7
2017-10-01T01:19:20.434Z,13.8
2017-10-01T01:20:19.620Z,13.7
2017-10-01T01:21:19.061Z,13.8
2017-10-01T01:22:17.996Z,13.8
2017-10-01T01:23:17.182Z,13.8
2017-10-01T01:24:16.237Z,13.7
2017-10-01T01:25:15.418Z,13.7
2017-10-01T01:26:15.105Z,13.6
2017-10-01T01:27:14.403Z,13.6
2017-10-01T01:28:13.336Z,13.6
2017-10-01T01:29:12.770Z,13.6
2017-10-01T01:30:11.693Z,13.6
2017-10-01T01:31:11.123Z,13.6
2017-10-01T01:32:10.306Z,13.6
2017-10-01T01:33:09.483Z,13.6
2017-10-01T01:34:08.791Z,13.6
2017-10-01T01:35:07.723Z,13.6
2017-10-01T01:36:07.405Z,13.6
2017-10-01T01:37:06.837Z,13.6
2017-10-01T01:38:05.644Z,13.6
2017-10-01T01:39:04.819Z,13.6
2017-10-01T01:40:04.250Z,13.6
2017-10-01T01:41:03.565Z,13.6
2017-10-01T01:42:02.502Z,13.6
2017-10-01T01:43:01.683Z,13.6
2017-10-01T01:44:00.992Z,13.6
2017-10-01T01:45:00.178Z,13.6
2017-10-01T01:45:59.609Z,13.6
2017-10-01T01:46:58.545Z,13.6
2017-10-01T01:48:56.984Z,13.6
2017-10-01T01:49:56.410Z,13.6
2017-10-01T01:50:55.845Z,13.6
2017-10-01T01:51:55.156Z,13.6
2017-10-01T01:52:54.205Z,13.5
2017-10-01T01:53:53.380Z,13.5
2017-10-01T01:55:52.066Z,13.5
2017-10-01T01:56:50.995Z,13.5
2017-10-01T01:57:50.176Z,13.5
2017-10-01T01:58:49.479Z,13.5
2017-10-01T01:59:48.659Z,13.5
2017-10-01T02:00:47.841Z,13.4
2017-10-01T02:01:46.895Z,13.4
2017-10-01T02:02:46.573Z,13.4
2017-10-01T02:03:45.624Z,13.5
2017-10-01T02:04:44.555Z,13.4
2017-10-01T02:05:44.006Z,13.4
2017-10-01T02:06:43.431Z,13.4
2017-10-01T02:07:42.733Z,13.4
2017-10-01T02:08:41.918Z,13.4
2017-10-01T02:09:40.713Z,13.5
2017-10-01T02:10:40.401Z,13.5
2017-10-01T02:11:39.589Z,13.4
2017-10-01T02:12:38.642Z,13.4
2017-10-01T02:13:37.954Z,13.4
2017-10-01T02:14:37.009Z,13.4
2017-10-01T02:15:36.193Z,13.4
2017-10-01T02:16:35.629Z,13.4
2017-10-01T02:17:34.819Z,13.4
2017-10-01T02:18:34.127Z,13.4
2017-10-01T02:19:33.431Z,13.4
2017-10-01T02:20:32.228Z,13.4
2017-10-01T02:21:31.661Z,13.4
2017-10-01T02:22:30.844Z,13.3
2017-10-01T02:23:30.024Z,13.3
2017-10-01T02:24:29.337Z,13.3
2017-10-01T02:25:28.648Z,13.3
2017-10-01T02:26:27.822Z,13.3
2017-10-01T02:27:27.009Z,13.3
2017-10-01T02:28:26.195Z,13.3
2017-10-01T02:29:25.500Z,13.3
2017-10-01T02:29:55.873Z,13.3
2017-10-01T02:31:23.870Z,13.3
2017-10-01T02:32:23.054Z,13.3
2017-10-01T02:33:22.236Z,13.3
2017-10-01T02:34:21.542Z,13.3
2017-10-01T02:35:20.875Z,13.3
2017-10-01T02:36:19.925Z,13.3
2017-10-01T02:37:19.358Z,13.3
2017-10-01T02:38:18.413Z,13.3
2017-10-01T02:39:17.847Z,13.3
2017-10-01T02:40:16.901Z,13.3
2017-10-01T02:40:47.143Z,13.3
2017-10-01T02:41:17.508Z,13.3
2017-10-01T02:41:47.881Z,13.3
2017-10-01T02:42:18.497Z,13.3
2017-10-01T02:43:14.414Z,13.2
2017-10-01T02:44:13.843Z,13.2
2017-10-01T02:45:13.308Z,13.2
2017-10-01T02:46:12.106Z,13.2
2017-10-01T02:47:11.677Z,13.2
2017-10-01T02:48:10.618Z,13.2
2017-10-01T02:49:09.820Z,13.1
2017-10-01T02:50:09.258Z,13.1
2017-10-01T02:51:08.575Z,13
2017-10-01T02:52:07.262Z,13
2017-10-01T02:53:06.955Z,12.9
2017-10-01T02:54:05.775Z,12.9
2017-10-01T02:55:04.957Z,12.9
2017-10-01T02:56:04.270Z,12.9
2017-10-01T02:57:03.591Z,12.9
2017-10-01T02:58:02.770Z,12.9
2017-10-01T02:59:02.075Z,12.8
2017-10-01T03:00:00.876Z,12.8
2017-10-01T03:01:00.436Z,12.8
2017-10-01T03:01:59.875Z,12.8
2017-10-01T03:02:58.807Z,12.8
2017-10-01T03:03:57.985Z,12.8
2017-10-01T03:04:57.302Z,12.8
2017-10-01T03:05:56.352Z,12.8
2017-10-01T03:06:55.529Z,12.8
2017-10-01T03:07:54.704Z,12.8
2017-10-01T03:08:53.882Z,12.8
2017-10-01T03:09:53.194Z,12.8
2017-10-01T03:10:52.368Z,12.8
2017-10-01T03:11:51.681Z,12.8
2017-10-01T03:12:50.733Z,12.8
2017-10-01T03:13:49.906Z,12.8
2017-10-01T03:14:49.586Z,12.8
2017-10-01T03:15:48.511Z,12.8
2017-10-01T03:16:47.564Z,12.8
2017-10-01T03:17:47.121Z,12.8
2017-10-01T03:18:46.302Z,12.8
2017-10-01T03:19:45.097Z,12.8
2017-10-01T03:20:44.396Z,12.8
2017-10-01T03:21:43.701Z,12.8
2017-10-01T03:22:43.002Z,12.8
2017-10-01T03:23:13.761Z,12.8
2017-10-01T03:24:41.377Z,12.8
2017-10-01T03:25:41.065Z,12.7
2017-10-01T03:26:39.992Z,12.7
2017-10-01T03:27:39.304Z,12.7
2017-10-01T03:28:38.237Z,12.7
2017-10-01T03:29:37.289Z,12.7
2017-10-01T03:30:36.595Z,12.7
2017-10-01T03:31:35.651Z,12.8
2017-10-01T03:32:35.334Z,12.7
2017-10-01T03:33:34.015Z,12.7
2017-10-01T03:34:04.642Z,12.7
2017-10-01T03:34:35.007Z,12.7
2017-10-01T03:35:32.422Z,12.7
2017-10-01T03:38:30.375Z,12.6
2017-10-01T03:39:29.433Z,12.6
2017-10-01T03:40:28.616Z,12.6
2017-10-01T03:41:27.797Z,12.6
2017-10-01T03:42:27.104Z,12.6
2017-10-01T03:43:26.535Z,12.6
2017-10-01T03:44:25.593Z,12.6
2017-10-01T03:45:24.902Z,12.6
2017-10-01T03:46:24.337Z,12.6
2017-10-01T03:47:23.138Z,12.6
2017-10-01T03:48:22.569Z,12.6
2017-10-01T03:49:21.750Z,12.6
2017-10-01T03:50:20.935Z,12.5
2017-10-01T03:51:20.356Z,12.5
2017-10-01T03:52:19.539Z,12.5
2017-10-01T03:53:18.595Z,12.5
2017-10-01T03:54:18.031Z,12.5
2017-10-01T03:55:16.968Z,12.5
2017-10-01T03:56:15.898Z,12.5
2017-10-01T03:58:14.342Z,12.4
2017-10-01T03:59:13.525Z,12.4
2017-10-01T04:00:13.211Z,12.4
2017-10-01T04:01:12.391Z,12.4
2017-10-01T04:02:11.443Z,12.3
2017-10-01T04:03:10.624Z,12.3
2017-10-01T04:04:09.805Z,12.3
2017-10-01T04:05:08.995Z,12.3
2017-10-01T04:06:08.308Z,12.3
2017-10-01T04:07:07.246Z,12.3
2017-10-01T04:08:06.550Z,12.3
2017-10-01T04:09:05.850Z,12.3
2017-10-01T04:10:05.036Z,12.3
2017-10-01T04:11:03.846Z,12.3
2017-10-01T04:12:03.145Z,12.2
2017-10-01T04:13:02.836Z,12.3
2017-10-01T04:14:01.774Z,12.3
2017-10-01T04:15:00.824Z,12.3
2017-10-01T04:16:00.135Z,12.2
2017-10-01T04:16:59.060Z,12.2
2017-10-01T04:17:58.497Z,12.2
2017-10-01T04:18:57.932Z,12.3
2017-10-01T04:19:56.980Z,12.3
2017-10-01T04:20:56.405Z,12.3
2017-10-01T04:21:55.464Z,12.3
2017-10-01T04:22:54.769Z,12.3
2017-10-01T04:24:52.822Z,12.2
2017-10-01T04:25:52.381Z,12.2
2017-10-01T04:26:51.060Z,12.2
2017-10-01T04:27:50.507Z,12.2
2017-10-01T04:28:49.563Z,12.2
2017-10-01T04:29:49.244Z,12.2
2017-10-01T04:30:48.426Z,12.2
2017-10-01T04:32:46.366Z,12.2
2017-10-01T04:33:45.681Z,12.2
2017-10-01T04:34:44.866Z,12.2
2017-10-01T04:35:44.166Z,12.2
2017-10-01T04:37:42.612Z,12.2
2017-10-01T04:38:41.532Z,12.2
2017-10-01T04:39:40.852Z,12.2
2017-10-01T04:40:40.164Z,12.2
2017-10-01T04:41:39.346Z,12.2
2017-10-01T04:42:38.661Z,12.2
2017-10-01T04:43:37.837Z,12.2
2017-10-01T04:44:36.897Z,12.2
2017-10-01T04:45:36.072Z,12.2
2017-10-01T04:46:35.381Z,12.2
2017-10-01T04:47:34.693Z,12.2
2017-10-01T04:48:33.864Z,12.2
2017-10-01T04:49:33.041Z,12.2
2017-10-01T04:50:31.974Z,12.2
2017-10-01T04:51:31.032Z,12.2
2017-10-01T04:52:30.465Z,12.2
2017-10-01T04:53:29.779Z,12.2
2017-10-01T04:54:29.222Z,12.2
2017-10-01T04:55:27.909Z,12.2
2017-10-01T04:56:27.215Z,12.2
2017-10-01T04:57:26.273Z,12.2
2017-10-01T04:58:25.572Z,12.2
2017-10-01T04:59:24.996Z,12.2
2017-10-01T05:00:24.179Z,12.2
2017-10-01T05:01:23.480Z,12.2
2017-10-01T05:02:22.792Z,12.2
2017-10-01T05:03:21.878Z,12.2
2017-10-01T05:04:20.682Z,12.2
2017-10-01T05:05:19.983Z,12.1
2017-10-01T05:06:19.416Z,12.1
2017-10-01T05:07:18.721Z,12.2
2017-10-01T05:08:17.518Z,12.1
2017-10-01T05:09:16.705Z,12.1
2017-10-01T05:10:16.289Z,12.1
2017-10-01T05:11:15.342Z,12.2
2017-10-01T05:13:13.408Z,12.1
2017-10-01T05:14:12.529Z,12.1
2017-10-01T05:15:12.363Z,12.2
2017-10-01T05:16:11.520Z,12.2
2017-10-01T05:17:10.323Z,12.2
2017-10-01T05:18:09.763Z,12.2
2017-10-01T05:19:08.943Z,12.2
2017-10-01T05:20:07.878Z,12.1
2017-10-01T05:21:07.455Z,12.1
2017-10-01T05:22:06.248Z,12.1
2017-10-01T05:23:05.694Z,12.1
2017-10-01T05:24:05.002Z,12.1
2017-10-01T05:25:04.051Z,12.1
2017-10-01T05:26:03.108Z,12.1
2017-10-01T05:27:02.167Z,12
2017-10-01T05:28:01.362Z,12
2017-10-01T05:29:00.545Z,12
2017-10-01T05:30:00.235Z,12
2017-10-01T05:30:59.156Z,12
2017-10-01T05:31:58.211Z,12
2017-10-01T05:32:57.396Z,12
2017-10-01T05:33:56.576Z,12
2017-10-01T05:34:55.757Z,11.9
2017-10-01T05:35:55.315Z,11.9
2017-10-01T05:36:53.991Z,11.9
2017-10-01T05:37:53.427Z,11.9
2017-10-01T05:38:52.859Z,11.9
2017-10-01T05:39:51.679Z,11.9
2017-10-01T05:40:50.983Z,11.8
2017-10-01T05:41:50.294Z,11.9
2017-10-01T05:42:49.472Z,11.8
2017-10-01T05:43:48.527Z,11.8
2017-10-01T05:44:47.958Z,11.8
2017-10-01T05:45:46.758Z,11.8
2017-10-01T05:46:45.811Z,11.8
2017-10-01T05:47:45.245Z,11.8
2017-10-01T05:48:44.299Z,11.8
2017-10-01T05:49:43.857Z,11.8
2017-10-01T05:50:43.284Z,11.8
2017-10-01T05:51:42.086Z,11.8
2017-10-01T05:52:41.271Z,11.8
2017-10-01T05:53:40.448Z,11.8
2017-10-01T05:54:39.504Z,11.8
2017-10-01T05:55:38.804Z,11.8
2017-10-01T05:56:37.861Z,11.8
2017-10-01T05:57:37.292Z,11.8
2017-10-01T05:58:36.472Z,11.8
2017-10-01T06:00:34.677Z,11.9
2017-10-01T06:01:33.978Z,11.9
2017-10-01T06:02:33.408Z,11.9
2017-10-01T06:03:32.213Z,11.8
2017-10-01T06:04:31.769Z,11.8
2017-10-01T06:05:30.820Z,11.9
2017-10-01T06:06:30.118Z,11.9
2017-10-01T06:07:29.173Z,11.9
2017-10-01T06:08:28.358Z,11.9
2017-10-01T06:09:27.665Z,11.9
2017-10-01T06:10:26.466Z,11.9
2017-10-01T06:11:25.901Z,11.9
2017-10-01T06:12:25.334Z,11.9
2017-10-01T06:13:24.131Z,11.9
2017-10-01T06:14:23.192Z,11.9
2017-10-01T06:15:22.623Z,11.9
2017-10-01T06:16:21.678Z,11.9
2017-10-01T06:17:20.987Z,11.9
2017-10-01T06:18:20.298Z,11.9
2017-10-01T06:19:19.607Z,11.9
2017-10-01T06:20:18.412Z,11.9
2017-10-01T06:21:17.973Z,11.9
2017-10-01T06:22:16.905Z,12
2017-10-01T06:23:15.829Z,12
2017-10-01T06:24:15.016Z,12
2017-10-01T06:25:14.192Z,12
2017-10-01T06:26:13.495Z,12
2017-10-01T06:27:12.931Z,12
2017-10-01T06:28:11.863Z,12
2017-10-01T06:29:11.169Z,12
2017-10-01T06:30:10.607Z,12
2017-10-01T06:30:40.849Z,12
2017-10-01T06:31:11.222Z,11.9
2017-10-01T06:31:41.723Z,11.9
2017-10-01T06:32:12.473Z,11.9
2017-10-01T06:32:42.835Z,11.9
2017-10-01T06:34:07.490Z,11.9
2017-10-01T06:35:06.452Z,11.9
2017-10-01T06:36:05.756Z,12
2017-10-01T06:37:04.431Z,11.9
2017-10-01T06:38:03.610Z,11.9
2017-10-01T06:39:03.294Z,11.9
2017-10-01T06:40:01.973Z,11.9
2017-10-01T06:41:01.280Z,11.9
2017-10-01T06:42:00.841Z,11.9
2017-10-01T06:42:59.522Z,11.9
2017-10-01T06:43:59.076Z,11.9
2017-10-01T06:44:58.391Z,11.9
2017-10-01T06:45:57.206Z,11.9
2017-10-01T06:46:56.641Z,11.8
2017-10-01T06:47:55.706Z,11.8
2017-10-01T06:48:54.885Z,11.9
2017-10-01T06:49:54.066Z,11.9
2017-10-01T06:50:53.488Z,11.9
2017-10-01T06:51:52.668Z,11.9
2017-10-01T06:52:52.098Z,11.9
2017-10-01T06:53:51.032Z,11.8
2017-10-01T06:54:50.408Z,11.8
2017-10-01T06:55:49.078Z,11.8
2017-10-01T06:56:48.513Z,11.8
2017-10-01T06:57:47.442Z,11.8
2017-10-01T06:58:46.868Z,11.8
2017-10-01T06:59:45.670Z,11.8
2017-10-01T07:00:44.977Z,11.8
2017-10-01T07:01:44.033Z,11.8
2017-10-01T07:04:42.116Z,11.8
2017-10-01T07:05:40.801Z,11.8
2017-10-01T07:06:39.972Z,11.8
2017-10-01T07:07:39.417Z,11.8
2017-10-01T07:08:38.976Z,11.8
2017-10-01T07:09:37.776Z,11.8
2017-10-01T07:10:37.081Z,11.9
2017-10-01T07:11:07.700Z,11.9
2017-10-01T07:11:38.310Z,11.8
2017-10-01T07:12:35.349Z,11.8
2017-10-01T07:13:34.463Z,11.8
2017-10-01T07:14:33.778Z,11.8
2017-10-01T07:15:33.088Z,11.8
2017-10-01T07:16:32.276Z,11.8
2017-10-01T07:17:31.453Z,11.8
2017-10-01T07:19:29.644Z,11.8
2017-10-01T07:20:28.699Z,11.8
2017-10-01T07:21:28.132Z,11.8
2017-10-01T07:22:27.061Z,11.8
2017-10-01T07:23:26.241Z,11.8
2017-10-01T07:24:25.539Z,11.8
2017-10-01T07:25:25.103Z,11.8
2017-10-01T07:26:23.907Z,11.8
2017-10-01T07:27:23.085Z,11.8
2017-10-01T07:28:22.277Z,11.8
2017-10-01T07:29:21.577Z,11.7
2017-10-01T07:30:21.010Z,11.8
2017-10-01T07:31:19.814Z,11.8
2017-10-01T07:32:19.004Z,11.8
2017-10-01T07:34:17.573Z,11.8
2017-10-01T07:35:16.507Z,11.8
2017-10-01T07:36:15.688Z,11.7
2017-10-01T07:37:14.878Z,11.7
2017-10-01T07:38:14.438Z,11.7
2017-10-01T07:39:13.245Z,11.7
2017-10-01T07:40:12.679Z,11.7
2017-10-01T07:41:12.141Z,11.7
2017-10-01T07:42:10.937Z,11.7
2017-10-01T07:43:10.119Z,11.8
2017-10-01T07:44:09.307Z,11.8
2017-10-01T07:45:08.361Z,11.7
2017-10-01T07:46:07.674Z,11.7
2017-10-01T07:47:06.986Z,11.7
2017-10-01T07:48:06.312Z,11.7
2017-10-01T07:49:05.496Z,11.7
2017-10-01T07:50:04.433Z,11.7
2017-10-01T07:51:03.614Z,11.7
2017-10-01T07:52:02.797Z,11.7
2017-10-01T07:53:02.099Z,11.7
2017-10-01T07:54:01.276Z,11.7
2017-10-01T07:55:00.458Z,11.7
2017-10-01T07:55:59.256Z,11.7
2017-10-01T07:56:58.572Z,11.7
2017-10-01T07:57:57.865Z,11.7
2017-10-01T07:58:56.808Z,11.7
2017-10-01T07:59:56.361Z,11.7
2017-10-01T08:00:55.533Z,11.8
2017-10-01T08:01:54.841Z,11.8
2017-10-01T08:02:53.640Z,11.8
2017-10-01T08:03:52.824Z,11.8
2017-10-01T08:04:52.258Z,11.8
2017-10-01T08:05:51.055Z,11.8
2017-10-01T08:06:50.239Z,11.8
2017-10-01T08:07:20.608Z,11.8
2017-10-01T08:08:49.221Z,11.8
2017-10-01T08:09:48.148Z,11.8
2017-10-01T08:10:47.457Z,11.8
2017-10-01T08:11:46.276Z,11.8
2017-10-01T08:12:45.703Z,11.8
2017-10-01T08:13:44.763Z,11.8
2017-10-01T08:14:43.809Z,11.8
2017-10-01T08:15:42.861Z,11.8
2017-10-01T08:16:42.552Z,11.8
2017-10-01T08:17:41.609Z,11.8
2017-10-01T08:18:40.789Z,11.8
2017-10-01T08:19:39.867Z,11.8
2017-10-01T08:20:38.925Z,11.8
2017-10-01T08:21:38.230Z,11.7
2017-10-01T08:22:37.538Z,11.7
2017-10-01T08:23:36.466Z,11.7
2017-10-01T08:24:35.527Z,11.7
2017-10-01T08:26:34.093Z,11.8
2017-10-01T08:27:33.284Z,11.8
2017-10-01T08:28:32.346Z,11.8
2017-10-01T08:29:31.782Z,11.8
2017-10-01T08:30:30.958Z,11.8
2017-10-01T08:31:30.266Z,11.8
2017-10-01T08:32:29.068Z,11.7
2017-10-01T08:33:28.121Z,11.8
2017-10-01T08:34:27.554Z,11.7
2017-10-01T08:35:26.989Z,11.7
2017-10-01T08:36:26.043Z,11.7
2017-10-01T08:37:25.218Z,11.7
2017-10-01T08:38:24.658Z,11.7
2017-10-01T08:40:22.723Z,11.7
2017-10-01T08:41:22.157Z,11.7
2017-10-01T08:42:20.837Z,11.7
2017-10-01T08:43:20.397Z,11.7
2017-10-01T08:44:19.700Z,11.7
2017-10-01T08:45:18.756Z,11.8
2017-10-01T08:46:18.062Z,11.8
2017-10-01T08:47:17.113Z,11.8
2017-10-01T08:48:16.045Z,11.8
2017-10-01T08:49:15.354Z,11.8
2017-10-01T08:50:14.783Z,11.8
2017-10-01T08:51:13.711Z,11.8
2017-10-01T08:52:13.024Z,11.8
2017-10-01T08:53:12.333Z,11.9
2017-10-01T08:54:11.269Z,11.9
2017-10-01T08:55:10.450Z,11.9
2017-10-01T08:56:09.505Z,11.9
2017-10-01T08:57:08.940Z,11.9
2017-10-01T08:58:07.872Z,11.9
2017-10-01T08:59:07.045Z,11.9
2017-10-01T09:00:06.354Z,11.9
2017-10-01T09:02:04.678Z,11.9
2017-10-01T09:03:04.244Z,12
2017-10-01T09:04:03.174Z,12
2017-10-01T09:05:02.486Z,12
2017-10-01T09:06:01.668Z,12
2017-10-01T09:07:00.599Z,12
2017-10-01T09:07:59.778Z,12
2017-10-01T09:08:59.672Z,12
2017-10-01T09:09:58.347Z,12.1
2017-10-01T09:11:56.796Z,12.1
2017-10-01T09:12:55.859Z,12
2017-10-01T09:13:55.293Z,12
2017-10-01T09:14:54.219Z,12
2017-10-01T09:15:53.523Z,12
2017-10-01T09:16:52.356Z,12
2017-10-01T09:18:51.050Z,12
2017-10-01T09:19:50.358Z,12
2017-10-01T09:21:48.676Z,12
2017-10-01T09:22:47.729Z,12
2017-10-01T09:23:46.793Z,12
2017-10-01T09:24:45.842Z,12.1
2017-10-01T09:25:45.019Z,12.1
2017-10-01T09:26:44.458Z,12.1
2017-10-01T09:27:43.896Z,12.1
2017-10-01T09:28:42.695Z,12.1
2017-10-01T09:29:41.623Z,12.1
2017-10-01T09:30:41.188Z,12
2017-10-01T09:31:40.499Z,12
2017-10-01T09:32:39.554Z,12
2017-10-01T09:33:38.356Z,12
2017-10-01T09:35:36.926Z,12.1
2017-10-01T09:36:36.487Z,12.1
2017-10-01T09:37:35.412Z,12.1
2017-10-01T09:38:34.466Z,12.2
2017-10-01T09:39:33.650Z,12.2
2017-10-01T09:40:33.208Z,12.2
2017-10-01T09:41:32.138Z,12.3
2017-10-01T09:42:31.447Z,12.3
2017-10-01T09:43:30.881Z,12.3
2017-10-01T09:44:29.559Z,12.2
2017-10-01T09:45:28.992Z,12.2
2017-10-01T09:46:28.053Z,12.3
2017-10-01T09:47:27.227Z,12.3
2017-10-01T09:48:26.284Z,12.3
2017-10-01T09:49:25.596Z,12.3
2017-10-01T09:51:23.777Z,12.3
2017-10-01T09:52:23.338Z,12.3
2017-10-01T09:53:22.260Z,12.3
2017-10-01T09:54:21.564Z,12.3
2017-10-01T09:55:20.747Z,12.3
2017-10-01T09:56:20.047Z,12.3
2017-10-01T09:57:19.110Z,12.4
2017-10-01T09:58:18.164Z,12.3
2017-10-01T09:59:17.721Z,12.3
2017-10-01T10:00:16.898Z,12.4
2017-10-01T10:01:16.079Z,12.4
2017-10-01T10:03:14.270Z,12.4
2017-10-01T10:04:13.320Z,12.4
2017-10-01T10:05:12.760Z,12.4
2017-10-01T10:06:12.192Z,12.4
2017-10-01T10:07:11.248Z,12.4
2017-10-01T10:08:10.305Z,12.4
2017-10-01T10:09:09.364Z,12.4
2017-10-01T10:10:08.677Z,12.4
2017-10-01T10:11:08.235Z,12.4
2017-10-01T10:12:06.920Z,12.4
2017-10-01T10:13:06.109Z,12.4
2017-10-01T10:14:05.679Z,12.4
2017-10-01T10:15:04.858Z,12.4
2017-10-01T10:16:03.794Z,12.4
2017-10-01T10:17:03.099Z,12.4
2017-10-01T10:18:02.156Z,12.4
2017-10-01T10:19:01.212Z,12.4
2017-10-01T10:20:00.545Z,12.4
2017-10-01T10:20:59.605Z,12.4
2017-10-01T10:21:58.928Z,12.4
2017-10-01T10:22:57.858Z,12.4
2017-10-01T10:23:57.292Z,12.4
2017-10-01T10:24:56.475Z,12.4
2017-10-01T10:25:55.777Z,12.4
2017-10-01T10:26:55.083Z,12.4
2017-10-01T10:27:54.396Z,12.4
2017-10-01T10:28:53.451Z,12.4
2017-10-01T10:29:52.760Z,12.3
2017-10-01T10:30:51.706Z,12.4
2017-10-01T10:31:50.889Z,12.4
2017-10-01T10:32:49.950Z,12.4
2017-10-01T10:35:47.908Z,12.4
2017-10-01T10:37:46.102Z,12.4
2017-10-01T10:38:45.157Z,12.5
2017-10-01T10:39:15.778Z,12.5
2017-10-01T10:40:43.637Z,12.5
2017-10-01T10:41:42.817Z,12.5
2017-10-01T10:42:41.998Z,12.5
2017-10-01T10:43:41.310Z,12.5
2017-10-01T10:44:40.365Z,12.6
2017-10-01T10:45:39.544Z,12.6
2017-10-01T10:46:38.983Z,12.6
2017-10-01T10:47:38.027Z,12.7
2017-10-01T10:48:37.338Z,12.7
2017-10-01T10:49:36.648Z,12.7
2017-10-01T10:50:35.326Z,12.7
2017-10-01T10:51:34.507Z,12.7
2017-10-01T10:52:34.188Z,12.7
2017-10-01T10:53:33.369Z,12.8
2017-10-01T10:54:32.426Z,12.8
2017-10-01T10:55:31.604Z,12.8
2017-10-01T10:56:31.047Z,12.8
2017-10-01T10:57:30.109Z,12.8
2017-10-01T10:58:29.056Z,12.8
2017-10-01T10:59:28.364Z,12.8
2017-10-01T11:00:27.546Z,12.8
2017-10-01T11:01:26.860Z,12.9
2017-10-01T11:02:26.041Z,12.9
2017-10-01T11:03:25.093Z,12.9
2017-10-01T11:04:24.271Z,12.9
2017-10-01T11:05:23.451Z,12.9
2017-10-01T11:06:22.755Z,12.9
2017-10-01T11:07:21.691Z,12.9
2017-10-01T11:08:21.432Z,13
2017-10-01T11:10:19.250Z,13
2017-10-01T11:11:18.938Z,13
2017-10-01T11:12:17.865Z,13
2017-10-01T11:13:17.042Z,13.1
2017-10-01T11:14:16.730Z,13.1
2017-10-01T11:15:15.540Z,13.1
2017-10-01T11:16:14.720Z,13.1
2017-10-01T11:17:13.898Z,13.1
2017-10-01T11:18:13.457Z,13.2
2017-10-01T11:19:12.398Z,13.2
2017-10-01T11:20:11.833Z,13.2
2017-10-01T11:21:10.633Z,13.2
2017-10-01T11:22:09.945Z,13.2
2017-10-01T11:23:09.252Z,13.3
2017-10-01T11:24:08.570Z,13.3
2017-10-01T11:25:07.754Z,13.3
2017-10-01T11:26:06.680Z,13.4
2017-10-01T11:27:05.736Z,13.4
2017-10-01T11:28:05.296Z,13.4
2017-10-01T11:29:04.230Z,13.4
2017-10-01T11:30:03.422Z,13.4
2017-10-01T11:31:02.607Z,13.4
2017-10-01T11:32:02.418Z,13.4
2017-10-01T11:33:01.117Z,13.4
2017-10-01T11:34:59.696Z,13.4
2017-10-01T11:35:59.130Z,13.4
2017-10-01T11:37:57.191Z,13.4
2017-10-01T11:38:56.498Z,13.4
2017-10-01T11:39:55.809Z,13.4
2017-10-01T11:40:54.864Z,13.4
2017-10-01T11:41:54.042Z,13.4
2017-10-01T11:42:53.222Z,13.4
2017-10-01T11:43:52.648Z,13.4
2017-10-01T11:44:51.453Z,13.4
2017-10-01T11:45:50.886Z,13.5
2017-10-01T11:46:50.072Z,13.5
2017-10-01T11:47:49.379Z,13.5
2017-10-01T11:48:48.687Z,13.5
2017-10-01T11:49:47.616Z,13.6
2017-10-01T11:50:46.915Z,13.6
2017-10-01T11:51:46.089Z,13.6
2017-10-01T11:52:45.265Z,13.6
2017-10-01T11:53:44.485Z,13.6
2017-10-01T11:54:43.916Z,13.6
2017-10-01T11:55:42.853Z,13.6
2017-10-01T11:56:42.286Z,13.7
2017-10-01T11:57:41.590Z,13.7
2017-10-01T11:58:40.897Z,13.7
2017-10-01T11:59:39.830Z,13.7
2017-10-01T12:00:39.143Z,13.7
2017-10-01T12:01:38.329Z,13.8
2017-10-01T12:02:37.762Z,13.8
2017-10-01T12:03:36.687Z,13.8
2017-10-01T12:04:35.985Z,13.8
2017-10-01T12:05:35.295Z,13.8
2017-10-01T12:06:34.220Z,13.8
2017-10-01T12:07:33.648Z,13.9
2017-10-01T12:08:33.077Z,13.9
2017-10-01T12:09:31.873Z,13.9
2017-10-01T12:10:31.321Z,14
2017-10-01T12:11:30.624Z,14
2017-10-01T12:12:30.074Z,14
2017-10-01T12:13:28.876Z,14
2017-10-01T12:14:28.189Z,14
2017-10-01T12:14:58.554Z,14
2017-10-01T12:15:29.045Z,14
2017-10-01T12:15:59.419Z,14
2017-10-01T12:17:25.652Z,14.1
2017-10-01T12:18:25.336Z,14.1
2017-10-01T12:19:24.139Z,14.1
2017-10-01T12:20:23.199Z,14.2
2017-10-01T12:21:22.519Z,14.2
2017-10-01T12:22:21.570Z,14.2
2017-10-01T12:23:21.131Z,14.2
2017-10-01T12:24:20.311Z,14.2
2017-10-01T12:25:19.743Z,14.2
2017-10-01T12:26:18.798Z,14.2
2017-10-01T12:27:17.856Z,14.2
2017-10-01T12:28:17.301Z,14.2
2017-10-01T12:29:16.228Z,14.2
2017-10-01T12:30:15.534Z,14.3
2017-10-01T12:31:14.715Z,14.3
2017-10-01T12:32:14.033Z,14.3
2017-10-01T12:33:13.470Z,14.4
2017-10-01T12:34:12.902Z,14.4
2017-10-01T12:35:11.833Z,14.4
2017-10-01T12:36:11.265Z,14.5
2017-10-01T12:37:10.446Z,14.5
2017-10-01T12:38:09.632Z,14.5
2017-10-01T12:39:08.444Z,14.6
2017-10-01T12:40:07.754Z,14.6
2017-10-01T12:41:07.080Z,14.6
2017-10-01T12:42:06.264Z,14.6
2017-10-01T12:43:05.448Z,14.6
2017-10-01T12:44:04.756Z,14.6
2017-10-01T12:45:04.182Z,14.6
2017-10-01T12:46:03.241Z,14.7
2017-10-01T12:47:02.428Z,14.7
2017-10-01T12:48:01.853Z,14.7
2017-10-01T12:49:01.165Z,14.8
2017-10-01T12:50:59.480Z,14.8
2017-10-01T12:51:58.786Z,14.8
2017-10-01T12:52:57.965Z,14.8
2017-10-01T12:53:56.772Z,14.8
2017-10-01T12:54:56.072Z,14.7
2017-10-01T12:55:55.759Z,14.7
2017-10-01T12:56:54.807Z,14.6
2017-10-01T12:57:54.143Z,14.6
2017-10-01T12:58:53.324Z,14.6
2017-10-01T12:59:23.939Z,14.6
2017-10-01T12:59:54.182Z,14.6
2017-10-01T13:00:51.972Z,14.6
2017-10-01T13:01:50.772Z,14.6
2017-10-01T13:02:50.329Z,14.6
2017-10-01T13:03:49.631Z,14.6
2017-10-01T13:05:47.575Z,14.6
2017-10-01T13:06:47.399Z,14.5
2017-10-01T13:07:46.202Z,14.5
2017-10-01T13:08:46.018Z,14.4
2017-10-01T13:09:45.080Z,14.4
2017-10-01T13:10:43.888Z,14.4
2017-10-01T13:11:43.325Z,14.4
2017-10-01T13:12:42.505Z,14.4
2017-10-01T13:13:41.931Z,14.5
2017-10-01T13:14:41.243Z,14.5
2017-10-01T13:15:40.427Z,14.5
2017-10-01T13:16:39.227Z,14.5
2017-10-01T13:17:38.656Z,14.4
2017-10-01T13:18:38.090Z,14.4
2017-10-01T13:19:37.411Z,14.4
2017-10-01T13:20:36.593Z,14.4
2017-10-01T13:21:35.779Z,14.4
2017-10-01T13:22:34.950Z,14.4
2017-10-01T13:23:34.135Z,14.4
2017-10-01T13:24:33.193Z,14.4
2017-10-01T13:25:32.501Z,14.4
2017-10-01T13:26:31.818Z,14.4
2017-10-01T13:27:31.245Z,14.4
2017-10-01T13:28:30.558Z,14.4
2017-10-01T13:29:29.482Z,14.4
2017-10-01T13:30:28.665Z,14.4
2017-10-01T13:31:28.103Z,14.4
2017-10-01T13:32:26.917Z,14.4
2017-10-01T13:33:26.723Z,14.4